sensor_id;sensor_type;location;lat;lon;timestamp;temperature;humidity
51615;DHT22;37695;52.960;6.188;2023-05-13T00:00:12;11.70;99.90
51615;DHT22;37695;52.960;6.188;2023-05-13T00:02:38;11.70;99.90
51615;DHT22;37695;52.960;6.188;2023-05-13T00:05:04;11.60;99.90
51615;DHT22;37695;52.960;6.188;2023-05-13T00:07:30;11.60;99.90
51615;DHT22;37695;52.960;6.188;2023-05-13T00:09:55;11.60;99.90
51615;DHT22;37695;52.960;6.188;2023-05-13T00:12:21;11.60;99.90
51615;DHT22;37695;52.960;6.188;2023-05-13T00:14:47;11.50;99.90
51615;DHT22;37695;52.960;6.188;2023-05-13T00:17:12;11.50;99.90
51615;DHT22;37695;52.960;6.188;2023-05-13T00:19:38;11.50;99.90
51615;DHT22;37695;52.960;6.188;2023-05-13T00:22:04;11.40;99.90
51615;DHT22;37695;52.960;6.188;2023-05-13T00:24:29;11.40;99.90
51615;DHT22;37695;52.960;6.188;2023-05-13T00:26:55;11.40;99.90
51615;DHT22;37695;52.960;6.188;2023-05-13T00:29:20;11.40;99.90
51615;DHT22;37695;52.960;6.188;2023-05-13T00:31:46;11.40;99.90
51615;DHT22;37695;52.960;6.188;2023-05-13T00:34:12;11.30;99.90
51615;DHT22;37695;52.960;6.188;2023-05-13T00:36:37;11.30;99.90
51615;DHT22;37695;52.960;6.188;2023-05-13T00:39:03;11.30;99.90
51615;DHT22;37695;52.960;6.188;2023-05-13T00:41:28;11.30;99.90
51615;DHT22;37695;52.960;6.188;2023-05-13T00:43:55;11.30;99.90
51615;DHT22;37695;52.960;6.188;2023-05-13T00:46:24;11.30;99.90
51615;DHT22;37695;52.960;6.188;2023-05-13T00:48:50;11.30;99.90
51615;DHT22;37695;52.960;6.188;2023-05-13T00:51:16;11.30;99.90
51615;DHT22;37695;52.960;6.188;2023-05-13T00:53:42;11.20;99.90
51615;DHT22;37695;52.960;6.188;2023-05-13T00:56:08;11.20;99.90
51615;DHT22;37695;52.960;6.188;2023-05-13T00:58:34;11.20;99.90
51615;DHT22;37695;52.960;6.188;2023-05-13T01:01:35;11.10;99.90
51615;DHT22;37695;52.960;6.188;2023-05-13T01:04:31;11.10;99.90
51615;DHT22;37695;52.960;6.188;2023-05-13T01:09:53;11.00;99.90
51615;DHT22;37695;52.960;6.188;2023-05-13T01:12:32;11.00;99.90
51615;DHT22;37695;52.960;6.188;2023-05-13T01:15:14;10.90;99.90
51615;DHT22;37695;52.960;6.188;2023-05-13T01:17:59;11.00;99.90
51615;DHT22;37695;52.960;6.188;2023-05-13T01:20:29;11.00;99.90
51615;DHT22;37695;52.960;6.188;2023-05-13T01:22:55;10.90;99.90
51615;DHT22;37695;52.960;6.188;2023-05-13T01:25:22;10.90;99.90
51615;DHT22;37695;52.960;6.188;2023-05-13T01:27:48;10.90;99.90
51615;DHT22;37695;52.960;6.188;2023-05-13T01:30:14;10.90;99.90
51615;DHT22;37695;52.960;6.188;2023-05-13T01:32:40;10.90;99.90
51615;DHT22;37695;52.960;6.188;2023-05-13T01:35:07;10.90;99.90
51615;DHT22;37695;52.960;6.188;2023-05-13T01:37:34;10.80;99.90
51615;DHT22;37695;52.960;6.188;2023-05-13T01:40:00;10.80;99.90
51615;DHT22;37695;52.960;6.188;2023-05-13T01:42:28;10.80;99.90
51615;DHT22;37695;52.960;6.188;2023-05-13T01:44:54;10.80;99.90
51615;DHT22;37695;52.960;6.188;2023-05-13T01:47:19;10.80;99.90
51615;DHT22;37695;52.960;6.188;2023-05-13T01:49:45;10.70;99.90
51615;DHT22;37695;52.960;6.188;2023-05-13T01:52:11;10.70;99.90
51615;DHT22;37695;52.960;6.188;2023-05-13T01:54:36;10.70;99.90
51615;DHT22;37695;52.960;6.188;2023-05-13T01:57:02;10.70;99.90
51615;DHT22;37695;52.960;6.188;2023-05-13T01:59:27;10.70;99.90
51615;DHT22;37695;52.960;6.188;2023-05-13T02:01:53;10.70;99.90
51615;DHT22;37695;52.960;6.188;2023-05-13T02:04:18;10.70;99.90
51615;DHT22;37695;52.960;6.188;2023-05-13T02:06:44;10.70;99.90
51615;DHT22;37695;52.960;6.188;2023-05-13T02:09:10;10.70;99.90
51615;DHT22;37695;52.960;6.188;2023-05-13T02:11:35;10.70;99.90
51615;DHT22;37695;52.960;6.188;2023-05-13T02:14:01;10.70;99.90
51615;DHT22;37695;52.960;6.188;2023-05-13T02:16:26;10.70;99.90
51615;DHT22;37695;52.960;6.188;2023-05-13T02:18:52;10.70;99.90
51615;DHT22;37695;52.960;6.188;2023-05-13T02:21:17;10.70;99.90
51615;DHT22;37695;52.960;6.188;2023-05-13T02:23:43;10.70;99.90
51615;DHT22;37695;52.960;6.188;2023-05-13T02:26:08;10.60;99.90
51615;DHT22;37695;52.960;6.188;2023-05-13T02:28:35;10.60;99.90
51615;DHT22;37695;52.960;6.188;2023-05-13T02:31:01;10.60;99.90
51615;DHT22;37695;52.960;6.188;2023-05-13T02:33:27;10.60;99.90
51615;DHT22;37695;52.960;6.188;2023-05-13T02:35:52;10.60;99.90
51615;DHT22;37695;52.960;6.188;2023-05-13T02:38:18;10.60;99.90
51615;DHT22;37695;52.960;6.188;2023-05-13T02:40:43;10.60;99.90
51615;DHT22;37695;52.960;6.188;2023-05-13T02:43:09;10.60;99.90
51615;DHT22;37695;52.960;6.188;2023-05-13T02:45:34;10.60;99.90
51615;DHT22;37695;52.960;6.188;2023-05-13T02:48:00;10.50;99.90
51615;DHT22;37695;52.960;6.188;2023-05-13T02:50:25;10.50;99.90
51615;DHT22;37695;52.960;6.188;2023-05-13T02:52:51;10.50;99.90
51615;DHT22;37695;52.960;6.188;2023-05-13T02:55:17;10.50;99.90
51615;DHT22;37695;52.960;6.188;2023-05-13T02:57:42;10.50;99.90
51615;DHT22;37695;52.960;6.188;2023-05-13T03:00:08;10.40;99.90
51615;DHT22;37695;52.960;6.188;2023-05-13T03:02:36;10.40;99.90
51615;DHT22;37695;52.960;6.188;2023-05-13T03:05:02;10.40;99.90
51615;DHT22;37695;52.960;6.188;2023-05-13T03:07:28;10.40;99.90
51615;DHT22;37695;52.960;6.188;2023-05-13T03:09:53;10.40;99.90
51615;DHT22;37695;52.960;6.188;2023-05-13T03:12:19;10.40;99.90
51615;DHT22;37695;52.960;6.188;2023-05-13T03:14:45;10.40;99.90
51615;DHT22;37695;52.960;6.188;2023-05-13T03:17:10;10.30;99.90
51615;DHT22;37695;52.960;6.188;2023-05-13T03:19:37;10.30;99.90
51615;DHT22;37695;52.960;6.188;2023-05-13T03:22:04;10.30;99.90
51615;DHT22;37695;52.960;6.188;2023-05-13T03:24:29;10.30;99.90
51615;DHT22;37695;52.960;6.188;2023-05-13T03:26:56;10.30;99.90
51615;DHT22;37695;52.960;6.188;2023-05-13T03:29:21;10.20;99.90
51615;DHT22;37695;52.960;6.188;2023-05-13T03:31:47;10.20;99.90
51615;DHT22;37695;52.960;6.188;2023-05-13T03:34:13;10.20;99.90
51615;DHT22;37695;52.960;6.188;2023-05-13T03:36:39;10.20;99.90
51615;DHT22;37695;52.960;6.188;2023-05-13T03:39:04;10.20;99.90
51615;DHT22;37695;52.960;6.188;2023-05-13T03:41:30;10.20;99.90
51615;DHT22;37695;52.960;6.188;2023-05-13T03:43:56;10.20;99.90
51615;DHT22;37695;52.960;6.188;2023-05-13T03:46:21;10.20;99.90
51615;DHT22;37695;52.960;6.188;2023-05-13T03:48:47;10.20;99.90
51615;DHT22;37695;52.960;6.188;2023-05-13T03:51:13;10.20;99.90
51615;DHT22;37695;52.960;6.188;2023-05-13T03:53:39;10.30;99.90
51615;DHT22;37695;52.960;6.188;2023-05-13T03:56:05;10.30;99.90
51615;DHT22;37695;52.960;6.188;2023-05-13T03:58:30;10.30;99.90
51615;DHT22;37695;52.960;6.188;2023-05-13T04:00:56;10.30;99.90
51615;DHT22;37695;52.960;6.188;2023-05-13T04:03:21;10.30;99.90
51615;DHT22;37695;52.960;6.188;2023-05-13T04:05:48;10.40;99.90
51615;DHT22;37695;52.960;6.188;2023-05-13T04:08:14;10.40;99.90
51615;DHT22;37695;52.960;6.188;2023-05-13T04:10:39;10.40;99.90
51615;DHT22;37695;52.960;6.188;2023-05-13T04:13:06;10.40;99.90
51615;DHT22;37695;52.960;6.188;2023-05-13T04:15:31;10.40;99.90
51615;DHT22;37695;52.960;6.188;2023-05-13T04:17:57;10.50;99.90
51615;DHT22;37695;52.960;6.188;2023-05-13T04:20:23;10.40;99.90
51615;DHT22;37695;52.960;6.188;2023-05-13T04:22:48;10.50;99.90
51615;DHT22;37695;52.960;6.188;2023-05-13T04:25:14;10.50;99.90
51615;DHT22;37695;52.960;6.188;2023-05-13T04:27:40;10.60;99.90
51615;DHT22;37695;52.960;6.188;2023-05-13T04:30:06;10.60;99.90
51615;DHT22;37695;52.960;6.188;2023-05-13T04:32:32;10.60;99.90
51615;DHT22;37695;52.960;6.188;2023-05-13T04:34:57;10.60;99.90
51615;DHT22;37695;52.960;6.188;2023-05-13T04:37:23;10.60;99.90
51615;DHT22;37695;52.960;6.188;2023-05-13T04:39:48;10.60;99.90
51615;DHT22;37695;52.960;6.188;2023-05-13T04:42:14;10.70;99.90
51615;DHT22;37695;52.960;6.188;2023-05-13T04:44:41;10.70;99.90
51615;DHT22;37695;52.960;6.188;2023-05-13T04:47:06;10.80;99.90
51615;DHT22;37695;52.960;6.188;2023-05-13T04:49:32;10.80;99.90
51615;DHT22;37695;52.960;6.188;2023-05-13T04:52:00;10.80;99.90
51615;DHT22;37695;52.960;6.188;2023-05-13T04:54:25;10.90;99.90
51615;DHT22;37695;52.960;6.188;2023-05-13T04:56:51;10.90;99.90
51615;DHT22;37695;52.960;6.188;2023-05-13T04:59:17;10.90;99.90
51615;DHT22;37695;52.960;6.188;2023-05-13T05:01:42;11.00;99.90
51615;DHT22;37695;52.960;6.188;2023-05-13T05:04:08;11.00;99.90
51615;DHT22;37695;52.960;6.188;2023-05-13T05:06:33;11.10;99.90
51615;DHT22;37695;52.960;6.188;2023-05-13T05:08:59;11.00;99.90
51615;DHT22;37695;52.960;6.188;2023-05-13T05:11:24;11.10;99.90
51615;DHT22;37695;52.960;6.188;2023-05-13T05:13:50;11.10;99.90
51615;DHT22;37695;52.960;6.188;2023-05-13T05:16:16;11.20;99.90
51615;DHT22;37695;52.960;6.188;2023-05-13T05:18:42;11.20;99.90
51615;DHT22;37695;52.960;6.188;2023-05-13T05:21:08;11.30;99.90
51615;DHT22;37695;52.960;6.188;2023-05-13T05:23:34;11.30;99.90
51615;DHT22;37695;52.960;6.188;2023-05-13T05:25:59;11.40;99.90
51615;DHT22;37695;52.960;6.188;2023-05-13T05:28:26;11.40;99.90
51615;DHT22;37695;52.960;6.188;2023-05-13T05:30:51;11.50;99.90
51615;DHT22;37695;52.960;6.188;2023-05-13T05:33:18;11.60;99.90
51615;DHT22;37695;52.960;6.188;2023-05-13T05:35:43;11.60;99.90
51615;DHT22;37695;52.960;6.188;2023-05-13T05:38:10;11.70;99.90
51615;DHT22;37695;52.960;6.188;2023-05-13T05:40:43;11.80;99.90
51615;DHT22;37695;52.960;6.188;2023-05-13T05:43:09;11.80;99.90
51615;DHT22;37695;52.960;6.188;2023-05-13T05:45:38;11.90;99.90
51615;DHT22;37695;52.960;6.188;2023-05-13T05:48:04;11.90;99.90
51615;DHT22;37695;52.960;6.188;2023-05-13T05:50:31;12.00;99.90
51615;DHT22;37695;52.960;6.188;2023-05-13T05:52:57;12.10;99.90
51615;DHT22;37695;52.960;6.188;2023-05-13T05:55:26;12.20;99.90
51615;DHT22;37695;52.960;6.188;2023-05-13T05:57:56;12.30;99.90
51615;DHT22;37695;52.960;6.188;2023-05-13T06:00:22;12.40;99.90
51615;DHT22;37695;52.960;6.188;2023-05-13T06:02:48;12.40;99.90
51615;DHT22;37695;52.960;6.188;2023-05-13T06:05:13;12.50;99.90
51615;DHT22;37695;52.960;6.188;2023-05-13T06:07:39;12.60;99.90
51615;DHT22;37695;52.960;6.188;2023-05-13T06:10:05;12.70;99.90
51615;DHT22;37695;52.960;6.188;2023-05-13T06:12:31;12.80;99.90
51615;DHT22;37695;52.960;6.188;2023-05-13T06:14:57;12.80;99.90
51615;DHT22;37695;52.960;6.188;2023-05-13T06:17:23;13.00;99.90
51615;DHT22;37695;52.960;6.188;2023-05-13T06:19:49;13.00;99.90
51615;DHT22;37695;52.960;6.188;2023-05-13T06:22:14;13.10;99.90
51615;DHT22;37695;52.960;6.188;2023-05-13T06:24:40;13.20;99.90
51615;DHT22;37695;52.960;6.188;2023-05-13T06:27:07;13.30;99.90
51615;DHT22;37695;52.960;6.188;2023-05-13T06:29:32;13.40;99.90
51615;DHT22;37695;52.960;6.188;2023-05-13T06:31:58;13.50;99.90
51615;DHT22;37695;52.960;6.188;2023-05-13T06:34:23;13.50;99.90
51615;DHT22;37695;52.960;6.188;2023-05-13T06:36:49;13.60;99.90
51615;DHT22;37695;52.960;6.188;2023-05-13T06:39:14;13.80;99.90
51615;DHT22;37695;52.960;6.188;2023-05-13T06:41:40;13.90;99.90
51615;DHT22;37695;52.960;6.188;2023-05-13T06:44:06;14.00;99.90
51615;DHT22;37695;52.960;6.188;2023-05-13T06:46:32;14.00;99.90
51615;DHT22;37695;52.960;6.188;2023-05-13T06:48:58;14.10;99.90
51615;DHT22;37695;52.960;6.188;2023-05-13T06:51:24;14.20;99.90
51615;DHT22;37695;52.960;6.188;2023-05-13T06:53:52;14.30;99.90
51615;DHT22;37695;52.960;6.188;2023-05-13T06:56:18;14.40;99.90
51615;DHT22;37695;52.960;6.188;2023-05-13T06:58:43;14.60;99.90
51615;DHT22;37695;52.960;6.188;2023-05-13T07:01:09;14.60;99.90
51615;DHT22;37695;52.960;6.188;2023-05-13T07:03:34;14.80;99.90
51615;DHT22;37695;52.960;6.188;2023-05-13T07:06:00;14.90;99.90
51615;DHT22;37695;52.960;6.188;2023-05-13T07:08:26;15.00;99.90
51615;DHT22;37695;52.960;6.188;2023-05-13T07:10:51;15.10;99.90
51615;DHT22;37695;52.960;6.188;2023-05-13T07:13:17;15.20;99.90
51615;DHT22;37695;52.960;6.188;2023-05-13T07:15:43;15.30;99.90
51615;DHT22;37695;52.960;6.188;2023-05-13T07:18:10;15.40;99.90
51615;DHT22;37695;52.960;6.188;2023-05-13T07:20:35;15.50;99.90
51615;DHT22;37695;52.960;6.188;2023-05-13T07:23:01;15.60;99.90
51615;DHT22;37695;52.960;6.188;2023-05-13T07:25:26;15.70;99.90
51615;DHT22;37695;52.960;6.188;2023-05-13T07:27:52;15.80;99.90
51615;DHT22;37695;52.960;6.188;2023-05-13T07:30:18;15.90;99.90
51615;DHT22;37695;52.960;6.188;2023-05-13T07:32:43;16.00;99.90
51615;DHT22;37695;52.960;6.188;2023-05-13T07:35:09;16.10;99.90
51615;DHT22;37695;52.960;6.188;2023-05-13T07:37:35;16.30;99.90
51615;DHT22;37695;52.960;6.188;2023-05-13T07:40:01;16.30;99.90
51615;DHT22;37695;52.960;6.188;2023-05-13T07:42:27;16.40;99.90
51615;DHT22;37695;52.960;6.188;2023-05-13T07:44:54;16.50;99.90
51615;DHT22;37695;52.960;6.188;2023-05-13T07:47:20;16.60;99.90
51615;DHT22;37695;52.960;6.188;2023-05-13T07:49:46;16.70;99.90
51615;DHT22;37695;52.960;6.188;2023-05-13T07:52:11;16.80;99.90
51615;DHT22;37695;52.960;6.188;2023-05-13T07:54:37;17.00;99.90
51615;DHT22;37695;52.960;6.188;2023-05-13T07:57:02;17.10;99.90
51615;DHT22;37695;52.960;6.188;2023-05-13T07:59:28;17.20;99.90
51615;DHT22;37695;52.960;6.188;2023-05-13T08:01:54;17.20;99.90
51615;DHT22;37695;52.960;6.188;2023-05-13T08:04:19;17.30;99.90
51615;DHT22;37695;52.960;6.188;2023-05-13T08:06:45;17.40;99.90
51615;DHT22;37695;52.960;6.188;2023-05-13T08:09:10;17.50;99.90
51615;DHT22;37695;52.960;6.188;2023-05-13T08:11:37;17.60;99.90
51615;DHT22;37695;52.960;6.188;2023-05-13T08:14:04;17.80;99.90
51615;DHT22;37695;52.960;6.188;2023-05-13T08:16:29;17.80;99.90
51615;DHT22;37695;52.960;6.188;2023-05-13T08:18:55;17.90;99.90
51615;DHT22;37695;52.960;6.188;2023-05-13T08:21:22;18.00;99.90
51615;DHT22;37695;52.960;6.188;2023-05-13T08:23:49;18.10;99.90
51615;DHT22;37695;52.960;6.188;2023-05-13T08:26:15;17.80;99.90
51615;DHT22;37695;52.960;6.188;2023-05-13T08:28:41;18.30;99.90
51615;DHT22;37695;52.960;6.188;2023-05-13T08:31:06;18.30;99.90
51615;DHT22;37695;52.960;6.188;2023-05-13T08:33:32;18.40;99.90
51615;DHT22;37695;52.960;6.188;2023-05-13T08:35:59;18.50;99.90
51615;DHT22;37695;52.960;6.188;2023-05-13T08:38:25;18.60;99.90
51615;DHT22;37695;52.960;6.188;2023-05-13T08:40:50;18.70;99.90
51615;DHT22;37695;52.960;6.188;2023-05-13T08:43:18;18.80;99.90
51615;DHT22;37695;52.960;6.188;2023-05-13T08:45:46;18.90;99.90
51615;DHT22;37695;52.960;6.188;2023-05-13T08:48:14;18.90;99.90
51615;DHT22;37695;52.960;6.188;2023-05-13T08:50:41;19.00;99.90
51615;DHT22;37695;52.960;6.188;2023-05-13T08:53:07;19.10;99.90
51615;DHT22;37695;52.960;6.188;2023-05-13T08:55:34;19.20;99.90
51615;DHT22;37695;52.960;6.188;2023-05-13T08:57:59;19.30;99.90
51615;DHT22;37695;52.960;6.188;2023-05-13T09:00:25;19.30;99.90
51615;DHT22;37695;52.960;6.188;2023-05-13T09:02:50;19.40;99.90
51615;DHT22;37695;52.960;6.188;2023-05-13T09:05:17;19.50;99.90
51615;DHT22;37695;52.960;6.188;2023-05-13T09:07:42;19.10;99.90
51615;DHT22;37695;52.960;6.188;2023-05-13T09:10:08;19.70;99.90
51615;DHT22;37695;52.960;6.188;2023-05-13T09:12:57;19.80;99.90
51615;DHT22;37695;52.960;6.188;2023-05-13T09:15:25;19.90;99.90
51615;DHT22;37695;52.960;6.188;2023-05-13T09:17:52;19.90;99.90
51615;DHT22;37695;52.960;6.188;2023-05-13T09:20:20;20.00;99.90
51615;DHT22;37695;52.960;6.188;2023-05-13T09:22:54;20.10;99.90
51615;DHT22;37695;52.960;6.188;2023-05-13T09:25:21;20.20;99.90
51615;DHT22;37695;52.960;6.188;2023-05-13T09:27:54;20.20;99.90
51615;DHT22;37695;52.960;6.188;2023-05-13T09:30:22;20.30;99.90
51615;DHT22;37695;52.960;6.188;2023-05-13T09:33:13;20.40;99.90
51615;DHT22;37695;52.960;6.188;2023-05-13T09:35:41;20.50;99.90
51615;DHT22;37695;52.960;6.188;2023-05-13T09:38:15;20.60;99.90
51615;DHT22;37695;52.960;6.188;2023-05-13T09:40:59;20.70;99.90
51615;DHT22;37695;52.960;6.188;2023-05-13T09:43:32;20.80;99.90
51615;DHT22;37695;52.960;6.188;2023-05-13T09:46:03;20.90;99.90
51615;DHT22;37695;52.960;6.188;2023-05-13T09:48:31;20.90;99.90
51615;DHT22;37695;52.960;6.188;2023-05-13T09:50:57;21.10;99.90
51615;DHT22;37695;52.960;6.188;2023-05-13T09:53:24;21.20;99.90
51615;DHT22;37695;52.960;6.188;2023-05-13T09:55:51;21.30;99.90
51615;DHT22;37695;52.960;6.188;2023-05-13T09:58:18;21.40;99.90
51615;DHT22;37695;52.960;6.188;2023-05-13T10:00:47;21.40;99.90
51615;DHT22;37695;52.960;6.188;2023-05-13T10:03:13;21.50;99.90
51615;DHT22;37695;52.960;6.188;2023-05-13T10:05:40;21.70;99.90
51615;DHT22;37695;52.960;6.188;2023-05-13T10:08:09;21.70;99.90
51615;DHT22;37695;52.960;6.188;2023-05-13T10:10:35;21.90;99.70
51615;DHT22;37695;52.960;6.188;2023-05-13T10:13:08;21.90;99.20
51615;DHT22;37695;52.960;6.188;2023-05-13T10:15:35;21.90;97.80
51615;DHT22;37695;52.960;6.188;2023-05-13T10:18:01;21.90;95.90
51615;DHT22;37695;52.960;6.188;2023-05-13T10:20:27;22.10;98.30
51615;DHT22;37695;52.960;6.188;2023-05-13T10:22:54;22.20;97.70
51615;DHT22;37695;52.960;6.188;2023-05-13T10:25:19;22.30;97.80
51615;DHT22;37695;52.960;6.188;2023-05-13T10:27:46;22.40;97.50
51615;DHT22;37695;52.960;6.188;2023-05-13T10:30:13;22.50;97.00
51615;DHT22;37695;52.960;6.188;2023-05-13T10:32:40;22.50;96.60
51615;DHT22;37695;52.960;6.188;2023-05-13T10:35:11;22.60;96.50
51615;DHT22;37695;52.960;6.188;2023-05-13T10:40:58;22.90;96.00
51615;DHT22;37695;52.960;6.188;2023-05-13T10:43:29;23.00;95.20
51615;DHT22;37695;52.960;6.188;2023-05-13T10:46:03;23.20;96.40
51615;DHT22;37695;52.960;6.188;2023-05-13T10:48:40;23.40;96.20
51615;DHT22;37695;52.960;6.188;2023-05-13T10:51:07;23.30;96.00
51615;DHT22;37695;52.960;6.188;2023-05-13T10:53:46;23.40;96.70
51615;DHT22;37695;52.960;6.188;2023-05-13T10:56:12;23.40;96.20
51615;DHT22;37695;52.960;6.188;2023-05-13T10:58:38;23.60;96.80
51615;DHT22;37695;52.960;6.188;2023-05-13T11:03:51;23.60;93.50
51615;DHT22;37695;52.960;6.188;2023-05-13T11:06:19;23.70;94.40
51615;DHT22;37695;52.960;6.188;2023-05-13T11:08:47;23.80;94.60
51615;DHT22;37695;52.960;6.188;2023-05-13T11:11:23;23.90;94.40
51615;DHT22;37695;52.960;6.188;2023-05-13T11:14:01;23.90;94.30
51615;DHT22;37695;52.960;6.188;2023-05-13T11:16:27;24.00;94.20
51615;DHT22;37695;52.960;6.188;2023-05-13T11:18:52;23.90;94.00
51615;DHT22;37695;52.960;6.188;2023-05-13T11:21:32;23.90;93.70
51615;DHT22;37695;52.960;6.188;2023-05-13T11:24:03;24.00;91.70
51615;DHT22;37695;52.960;6.188;2023-05-13T11:26:49;23.90;92.50
51615;DHT22;37695;52.960;6.188;2023-05-13T11:29:32;24.20;92.70
51615;DHT22;37695;52.960;6.188;2023-05-13T11:31:59;24.30;94.10
51615;DHT22;37695;52.960;6.188;2023-05-13T11:34:26;24.40;94.40
51615;DHT22;37695;52.960;6.188;2023-05-13T11:39:27;24.00;94.10
51615;DHT22;37695;52.960;6.188;2023-05-13T11:41:53;23.70;94.70
51615;DHT22;37695;52.960;6.188;2023-05-13T11:44:24;23.60;94.60
51615;DHT22;37695;52.960;6.188;2023-05-13T11:52:05;23.90;94.50
51615;DHT22;37695;52.960;6.188;2023-05-13T11:54:30;23.70;94.90
51615;DHT22;37695;52.960;6.188;2023-05-13T11:56:56;23.50;95.00
51615;DHT22;37695;52.960;6.188;2023-05-13T11:59:22;23.70;95.20
51615;DHT22;37695;52.960;6.188;2023-05-13T12:02:01;23.90;95.20
51615;DHT22;37695;52.960;6.188;2023-05-13T12:04:28;24.00;94.50
51615;DHT22;37695;52.960;6.188;2023-05-13T12:06:54;24.30;95.10
51615;DHT22;37695;52.960;6.188;2023-05-13T12:09:22;24.40;94.20
51615;DHT22;37695;52.960;6.188;2023-05-13T12:11:49;24.30;93.70
51615;DHT22;37695;52.960;6.188;2023-05-13T12:14:16;24.10;93.90
51615;DHT22;37695;52.960;6.188;2023-05-13T12:16:42;23.90;94.60
51615;DHT22;37695;52.960;6.188;2023-05-13T12:19:08;23.90;94.90
51615;DHT22;37695;52.960;6.188;2023-05-13T12:21:36;23.90;94.80
51615;DHT22;37695;52.960;6.188;2023-05-13T12:24:21;24.10;95.00
51615;DHT22;37695;52.960;6.188;2023-05-13T12:26:47;23.90;94.60
51615;DHT22;37695;52.960;6.188;2023-05-13T12:29:13;23.80;94.60
51615;DHT22;37695;52.960;6.188;2023-05-13T12:32:03;24.00;94.90
51615;DHT22;37695;52.960;6.188;2023-05-13T12:34:33;24.20;93.90
51615;DHT22;37695;52.960;6.188;2023-05-13T12:37:12;24.20;93.10
51615;DHT22;37695;52.960;6.188;2023-05-13T12:39:38;24.20;92.60
51615;DHT22;37695;52.960;6.188;2023-05-13T12:42:06;24.40;93.70
51615;DHT22;37695;52.960;6.188;2023-05-13T12:44:38;24.30;93.20
51615;DHT22;37695;52.960;6.188;2023-05-13T12:47:03;24.60;93.40
51615;DHT22;37695;52.960;6.188;2023-05-13T12:49:30;24.80;93.10
51615;DHT22;37695;52.960;6.188;2023-05-13T12:51:56;24.90;93.20
51615;DHT22;37695;52.960;6.188;2023-05-13T12:54:22;24.70;93.30
51615;DHT22;37695;52.960;6.188;2023-05-13T12:56:47;24.40;93.80
51615;DHT22;37695;52.960;6.188;2023-05-13T12:59:13;24.30;94.20
51615;DHT22;37695;52.960;6.188;2023-05-13T13:01:39;24.30;94.30
51615;DHT22;37695;52.960;6.188;2023-05-13T13:04:06;24.40;93.90
51615;DHT22;37695;52.960;6.188;2023-05-13T13:06:32;24.50;93.00
51615;DHT22;37695;52.960;6.188;2023-05-13T13:08:58;24.60;93.10
51615;DHT22;37695;52.960;6.188;2023-05-13T13:11:23;24.70;93.30
51615;DHT22;37695;52.960;6.188;2023-05-13T13:13:49;24.60;93.40
51615;DHT22;37695;52.960;6.188;2023-05-13T13:16:14;24.20;93.30
51615;DHT22;37695;52.960;6.188;2023-05-13T13:18:41;23.90;93.20
51615;DHT22;37695;52.960;6.188;2023-05-13T13:21:06;23.90;93.50
51615;DHT22;37695;52.960;6.188;2023-05-13T13:23:35;24.00;93.60
51615;DHT22;37695;52.960;6.188;2023-05-13T13:26:00;24.10;94.00
51615;DHT22;37695;52.960;6.188;2023-05-13T13:28:27;24.10;93.40
51615;DHT22;37695;52.960;6.188;2023-05-13T13:30:53;24.20;93.20
51615;DHT22;37695;52.960;6.188;2023-05-13T13:33:19;24.30;93.50
51615;DHT22;37695;52.960;6.188;2023-05-13T13:35:45;24.10;93.50
51615;DHT22;37695;52.960;6.188;2023-05-13T13:38:12;23.90;93.60
51615;DHT22;37695;52.960;6.188;2023-05-13T13:40:38;23.80;92.90
51615;DHT22;37695;52.960;6.188;2023-05-13T13:43:07;23.80;92.90
51615;DHT22;37695;52.960;6.188;2023-05-13T13:45:33;24.10;93.60
51615;DHT22;37695;52.960;6.188;2023-05-13T13:47:59;24.30;93.70
51615;DHT22;37695;52.960;6.188;2023-05-13T13:50:25;24.20;93.00
51615;DHT22;37695;52.960;6.188;2023-05-13T13:52:50;24.40;92.80
51615;DHT22;37695;52.960;6.188;2023-05-13T13:55:20;24.30;92.90
51615;DHT22;37695;52.960;6.188;2023-05-13T13:57:46;24.10;92.70
51615;DHT22;37695;52.960;6.188;2023-05-13T14:00:12;23.90;93.50
51615;DHT22;37695;52.960;6.188;2023-05-13T14:02:39;23.70;93.90
51615;DHT22;37695;52.960;6.188;2023-05-13T14:05:05;23.50;94.50
51615;DHT22;37695;52.960;6.188;2023-05-13T14:07:31;23.30;94.70
51615;DHT22;37695;52.960;6.188;2023-05-13T14:09:56;23.10;94.90
51615;DHT22;37695;52.960;6.188;2023-05-13T14:12:22;22.90;94.90
51615;DHT22;37695;52.960;6.188;2023-05-13T14:14:48;22.70;94.80
51615;DHT22;37695;52.960;6.188;2023-05-13T14:17:13;22.60;94.50
51615;DHT22;37695;52.960;6.188;2023-05-13T14:19:39;22.70;94.80
51615;DHT22;37695;52.960;6.188;2023-05-13T14:22:04;22.90;95.20
51615;DHT22;37695;52.960;6.188;2023-05-13T14:24:30;22.80;94.60
51615;DHT22;37695;52.960;6.188;2023-05-13T14:26:57;23.00;94.40
51615;DHT22;37695;52.960;6.188;2023-05-13T14:29:23;23.20;94.10
51615;DHT22;37695;52.960;6.188;2023-05-13T14:31:49;23.20;93.60
51615;DHT22;37695;52.960;6.188;2023-05-13T14:34:14;23.30;93.70
51615;DHT22;37695;52.960;6.188;2023-05-13T14:36:40;23.30;93.60
51615;DHT22;37695;52.960;6.188;2023-05-13T14:39:06;23.20;93.30
51615;DHT22;37695;52.960;6.188;2023-05-13T14:41:33;23.40;93.00
51615;DHT22;37695;52.960;6.188;2023-05-13T14:43:59;23.30;93.00
51615;DHT22;37695;52.960;6.188;2023-05-13T14:46:25;23.30;92.90
51615;DHT22;37695;52.960;6.188;2023-05-13T14:48:52;23.30;92.00
51615;DHT22;37695;52.960;6.188;2023-05-13T14:51:17;23.30;91.50
51615;DHT22;37695;52.960;6.188;2023-05-13T14:53:43;23.30;90.90
51615;DHT22;37695;52.960;6.188;2023-05-13T14:56:08;23.20;90.80
51615;DHT22;37695;52.960;6.188;2023-05-13T14:58:34;23.20;90.60
51615;DHT22;37695;52.960;6.188;2023-05-13T15:01:00;23.10;90.20
51615;DHT22;37695;52.960;6.188;2023-05-13T15:03:26;23.00;90.30
51615;DHT22;37695;52.960;6.188;2023-05-13T15:05:51;23.10;90.40
51615;DHT22;37695;52.960;6.188;2023-05-13T15:08:18;23.00;90.60
51615;DHT22;37695;52.960;6.188;2023-05-13T15:10:44;23.00;91.10
51615;DHT22;37695;52.960;6.188;2023-05-13T15:13:10;23.10;91.30
51615;DHT22;37695;52.960;6.188;2023-05-13T15:15:36;23.10;90.60
51615;DHT22;37695;52.960;6.188;2023-05-13T15:18:01;23.00;90.50
51615;DHT22;37695;52.960;6.188;2023-05-13T15:20:27;23.00;91.20
51615;DHT22;37695;52.960;6.188;2023-05-13T15:22:53;22.90;91.20
51615;DHT22;37695;52.960;6.188;2023-05-13T15:25:19;23.00;91.50
51615;DHT22;37695;52.960;6.188;2023-05-13T15:27:44;23.00;91.60
51615;DHT22;37695;52.960;6.188;2023-05-13T15:30:10;23.00;91.80
51615;DHT22;37695;52.960;6.188;2023-05-13T15:32:35;23.00;91.50
51615;DHT22;37695;52.960;6.188;2023-05-13T15:35:01;22.80;90.90
51615;DHT22;37695;52.960;6.188;2023-05-13T15:37:27;22.80;91.10
51615;DHT22;37695;52.960;6.188;2023-05-13T15:39:53;22.90;91.20
51615;DHT22;37695;52.960;6.188;2023-05-13T15:42:18;23.00;90.90
51615;DHT22;37695;52.960;6.188;2023-05-13T15:44:44;22.90;90.90